createdAt,value
2017-07-02T00:02:16.939Z,22.77
2017-07-02T00:04:45.000Z,23.90
2017-07-02T00:07:13.092Z,23.63
2017-07-02T00:09:41.158Z,23.00
2017-07-02T00:12:09.239Z,22.53
2017-07-02T00:14:37.306Z,29.27
2017-07-02T00:17:05.375Z,24.50
2017-07-02T00:19:33.448Z,23.70
2017-07-02T00:22:01.518Z,25.70
2017-07-02T00:24:29.590Z,27.23
2017-07-02T00:26:57.682Z,24.77
2017-07-02T00:29:26.522Z,26.63
2017-07-02T00:31:54.594Z,18.93
2017-07-02T00:34:22.655Z,18.47
2017-07-02T00:36:50.727Z,34.10
2017-07-02T00:39:18.787Z,26.73
2017-07-02T00:41:46.870Z,27.13
2017-07-02T00:44:14.938Z,24.00
2017-07-02T00:46:44.359Z,22.03
2017-07-02T00:49:12.436Z,21.20
2017-07-02T00:51:40.541Z,25.47
2017-07-02T00:54:09.382Z,29.63
2017-07-02T00:56:37.447Z,23.63
2017-07-02T00:59:05.523Z,20.00
2017-07-02T01:01:33.588Z,21.57
2017-07-02T01:04:01.652Z,27.93
2017-07-02T01:06:29.747Z,22.57
2017-07-02T01:08:57.843Z,24.10
2017-07-02T01:11:25.886Z,26.00
2017-07-02T01:13:53.958Z,21.90
2017-07-02T01:16:22.039Z,26.10
2017-07-02T01:18:50.098Z,22.50
2017-07-02T01:21:18.183Z,23.07
2017-07-02T01:23:46.251Z,22.30
2017-07-02T01:26:14.316Z,28.60
2017-07-02T01:28:42.395Z,16.70
2017-07-02T01:31:10.447Z,21.20
2017-07-02T01:33:38.508Z,19.20
2017-07-02T01:36:06.600Z,21.27
2017-07-02T01:38:34.683Z,24.60
2017-07-02T01:41:02.758Z,27.50
2017-07-02T01:43:30.810Z,24.47
2017-07-02T01:45:58.898Z,32.33
2017-07-02T01:48:27.717Z,32.97
2017-07-02T01:50:55.788Z,18.47
2017-07-02T01:53:23.871Z,20.93
2017-07-02T01:55:51.930Z,24.17
2017-07-02T01:58:20.002Z,27.40
2017-07-02T02:00:59.983Z,23.67
2017-07-02T02:03:28.047Z,22.00
2017-07-02T02:05:56.131Z,22.10
2017-07-02T02:08:24.190Z,22.10
2017-07-02T02:10:52.251Z,26.93
2017-07-02T02:13:20.335Z,25.07
2017-07-02T02:15:48.402Z,22.03
2017-07-02T02:18:16.463Z,19.67
2017-07-02T02:20:44.542Z,25.40
2017-07-02T02:23:12.603Z,23.70
2017-07-02T02:25:40.675Z,23.80
2017-07-02T02:28:08.739Z,25.47
2017-07-02T02:30:36.822Z,34.53
2017-07-02T02:33:04.891Z,35.17
2017-07-02T02:35:32.956Z,23.93
2017-07-02T02:38:01.030Z,27.90
2017-07-02T02:40:29.102Z,21.17
2017-07-02T02:42:57.169Z,28.63
2017-07-02T02:45:25.269Z,28.90
2017-07-02T02:47:56.167Z,34.43
2017-07-02T02:50:24.971Z,30.47
2017-07-02T02:52:53.030Z,25.93
2017-07-02T02:55:21.108Z,23.70
2017-07-02T02:57:49.176Z,33.50
2017-07-02T03:00:17.263Z,27.50
2017-07-02T03:02:45.331Z,34.80
2017-07-02T03:05:13.394Z,27.63
2017-07-02T03:07:41.473Z,33.23
2017-07-02T03:10:09.547Z,31.83
2017-07-02T03:12:37.611Z,29.57
2017-07-02T03:15:05.699Z,33.33
2017-07-02T03:17:33.771Z,24.80
2017-07-02T03:20:01.861Z,34.03
2017-07-02T03:22:29.938Z,37.80
2017-07-02T03:24:58.784Z,33.20
2017-07-02T03:27:26.851Z,30.00
2017-07-02T03:29:54.933Z,30.33
2017-07-02T03:32:23.006Z,29.53
2017-07-02T03:34:51.083Z,22.27
2017-07-02T03:37:19.155Z,31.03
2017-07-02T03:39:47.218Z,31.90
2017-07-02T03:42:15.294Z,40.43
2017-07-02T03:44:43.362Z,28.07
2017-07-02T03:47:11.434Z,36.20
2017-07-02T03:49:39.514Z,28.90
2017-07-02T03:52:07.599Z,29.37
2017-07-02T03:54:35.667Z,30.43
2017-07-02T03:57:03.778Z,29.13
2017-07-02T03:59:31.839Z,34.13
2017-07-02T04:01:59.914Z,34.83
2017-07-02T04:04:27.994Z,31.10
2017-07-02T04:06:56.084Z,40.27
2017-07-02T04:09:24.134Z,34.80
2017-07-02T04:11:52.222Z,28.53
2017-07-02T04:14:21.055Z,35.23
2017-07-02T04:16:49.120Z,38.47
2017-07-02T04:19:17.214Z,31.70
2017-07-02T04:21:45.317Z,29.57
2017-07-02T04:24:13.382Z,46.43
2017-07-02T04:26:41.453Z,34.80
2017-07-02T04:29:09.521Z,34.63
2017-07-02T04:31:37.587Z,28.93
2017-07-02T04:34:05.675Z,26.87
2017-07-02T04:36:34.508Z,37.60
2017-07-02T04:39:02.583Z,32.90
2017-07-02T04:41:30.863Z,23.10
2017-07-02T04:43:58.890Z,23.73
2017-07-02T04:46:27.730Z,27.60
2017-07-02T04:48:55.792Z,24.33
2017-07-02T04:51:23.898Z,32.93
2017-07-02T04:53:51.950Z,25.60
2017-07-02T04:56:20.031Z,27.30
2017-07-02T04:58:48.121Z,29.07
2017-07-02T05:01:16.195Z,27.27
2017-07-02T05:03:44.262Z,23.77
2017-07-02T05:06:12.363Z,31.40
2017-07-02T05:08:41.699Z,26.83
2017-07-02T05:11:09.803Z,27.17
2017-07-02T05:13:37.942Z,25.37
2017-07-02T05:16:06.223Z,30.93
2017-07-02T05:18:34.323Z,17.30
2017-07-02T05:21:02.441Z,25.77
2017-07-02T05:23:30.541Z,24.17
2017-07-02T05:25:58.659Z,22.80
2017-07-02T05:28:27.514Z,20.90
2017-07-02T05:30:55.608Z,25.53
2017-07-02T05:33:23.674Z,18.20
2017-07-02T05:35:51.747Z,21.77
2017-07-02T05:38:19.808Z,25.23
2017-07-02T05:40:47.891Z,23.70
2017-07-02T05:43:16.723Z,19.37
2017-07-02T05:45:44.794Z,21.40
2017-07-02T05:48:12.879Z,24.33
2017-07-02T05:50:40.944Z,24.27
2017-07-02T05:53:09.014Z,21.53
2017-07-02T05:55:37.095Z,25.30
2017-07-02T05:58:06.135Z,18.23
2017-07-02T06:00:34.951Z,21.27
2017-07-02T06:03:03.034Z,22.33
2017-07-02T06:05:31.099Z,18.07
2017-07-02T06:07:59.204Z,18.47
2017-07-02T06:10:27.262Z,17.60
2017-07-02T06:12:55.323Z,20.43
2017-07-02T06:15:23.430Z,16.67
2017-07-02T06:17:51.499Z,18.43
2017-07-02T06:20:19.570Z,18.20
2017-07-02T06:22:47.647Z,15.70
2017-07-02T06:25:15.785Z,18.73
2017-07-02T06:27:43.834Z,14.80
2017-07-02T06:30:11.910Z,15.73
2017-07-02T06:32:39.977Z,13.97
2017-07-02T06:35:08.046Z,16.93
2017-07-02T06:37:36.135Z,18.93
2017-07-02T06:40:04.235Z,13.87
2017-07-02T06:42:32.286Z,15.93
2017-07-02T06:45:00.360Z,12.60
2017-07-02T06:47:28.449Z,14.47
2017-07-02T06:49:56.499Z,12.70
2017-07-02T06:52:24.622Z,9.27
2017-07-02T06:54:52.699Z,11.87
2017-07-02T06:57:20.773Z,11.10
2017-07-02T06:59:48.831Z,13.00
2017-07-02T07:02:16.911Z,14.97
2017-07-02T07:04:44.991Z,18.20
2017-07-02T07:07:13.066Z,13.50
2017-07-02T07:09:41.907Z,12.10
2017-07-02T07:12:10.013Z,12.87
2017-07-02T07:14:38.064Z,19.30
2017-07-02T07:17:06.119Z,13.00
2017-07-02T07:19:34.186Z,11.33
2017-07-02T07:22:02.247Z,15.30
2017-07-02T07:24:30.323Z,15.60
2017-07-02T07:26:58.404Z,17.43
2017-07-02T07:29:26.458Z,11.77
2017-07-02T07:31:54.544Z,13.53
2017-07-02T07:34:22.603Z,14.40
2017-07-02T07:36:50.691Z,16.20
2017-07-02T07:39:18.761Z,13.50
2017-07-02T07:41:46.827Z,18.33
2017-07-02T07:44:14.899Z,16.60
2017-07-02T07:46:42.959Z,10.00
2017-07-02T07:49:11.051Z,19.50
2017-07-02T07:51:39.095Z,17.07
2017-07-02T07:54:07.186Z,14.77
2017-07-02T07:56:36.015Z,10.27
2017-07-02T07:59:04.097Z,15.00
2017-07-02T08:01:32.186Z,17.93
2017-07-02T08:04:00.265Z,24.93
2017-07-02T08:06:28.406Z,13.07
2017-07-02T08:08:57.219Z,14.17
2017-07-02T08:11:25.280Z,17.03
2017-07-02T08:13:53.377Z,15.27
2017-07-02T08:16:21.455Z,17.63
2017-07-02T08:18:49.503Z,14.50
2017-07-02T08:21:18.459Z,13.40
2017-07-02T08:23:46.518Z,19.00
2017-07-02T08:26:14.591Z,11.00
2017-07-02T08:28:42.663Z,16.53
2017-07-02T08:31:10.731Z,15.40
2017-07-02T08:33:39.567Z,18.57
2017-07-02T08:36:07.639Z,19.57
2017-07-02T08:38:35.709Z,16.60
2017-07-02T08:41:03.805Z,16.53
2017-07-02T08:43:31.895Z,20.17
2017-07-02T08:46:00.807Z,18.40
2017-07-02T08:48:28.867Z,19.53
2017-07-02T08:50:56.959Z,24.13
2017-07-02T08:53:25.053Z,17.40
2017-07-02T08:55:53.125Z,21.60
2017-07-02T08:58:21.210Z,19.00
2017-07-02T09:00:49.283Z,19.13
2017-07-02T09:03:17.397Z,18.77
2017-07-02T09:05:46.251Z,23.07
2017-07-02T09:08:14.327Z,25.00
2017-07-02T09:10:42.436Z,21.30
2017-07-02T09:13:11.263Z,23.87
2017-07-02T09:15:39.377Z,26.03
2017-07-02T09:18:07.444Z,28.10
2017-07-02T09:20:35.520Z,31.50
2017-07-02T09:23:03.587Z,31.20
2017-07-02T09:25:31.644Z,30.00
2017-07-02T09:27:59.722Z,31.37
2017-07-02T09:30:27.803Z,32.90
2017-07-02T09:32:55.870Z,32.73
2017-07-02T09:35:23.943Z,30.30
2017-07-02T09:37:52.007Z,34.97
2017-07-02T09:40:20.074Z,41.97
2017-07-02T09:42:48.158Z,37.60
2017-07-02T09:45:16.229Z,38.43
2017-07-02T09:47:44.308Z,41.20
2017-07-02T09:50:13.166Z,37.17
2017-07-02T09:52:41.237Z,38.70
2017-07-02T09:55:09.287Z,40.57
2017-07-02T09:57:37.360Z,39.50
2017-07-02T10:00:05.435Z,40.33
2017-07-02T10:02:33.527Z,41.90
2017-07-02T10:05:01.601Z,43.23
2017-07-02T10:07:29.673Z,44.03
2017-07-02T10:09:57.759Z,43.83
2017-07-02T10:12:26.607Z,46.70
2017-07-02T10:14:54.675Z,50.97
2017-07-02T10:17:22.762Z,44.97
2017-07-02T10:19:50.843Z,45.57
2017-07-02T10:22:18.948Z,47.93
2017-07-02T10:24:47.000Z,46.80
2017-07-02T10:27:15.847Z,53.77
2017-07-02T10:29:43.943Z,44.20
2017-07-02T10:32:12.037Z,42.70
2017-07-02T10:34:40.885Z,46.00
2017-07-02T10:37:08.970Z,46.20
2017-07-02T10:39:37.023Z,49.93
2017-07-02T10:42:05.095Z,48.60
2017-07-02T10:44:33.182Z,49.87
2017-07-02T10:47:01.262Z,51.13
2017-07-02T10:49:29.329Z,47.00
2017-07-02T10:51:57.394Z,47.13
2017-07-02T10:54:25.462Z,48.73
2017-07-02T10:56:54.315Z,50.90
2017-07-02T10:59:22.376Z,47.27
2017-07-02T11:01:50.442Z,48.53
2017-07-02T11:04:18.535Z,42.77
2017-07-02T11:06:46.620Z,47.13
2017-07-02T11:09:15.455Z,47.90
2017-07-02T11:11:43.559Z,47.00
2017-07-02T11:14:11.643Z,44.83
2017-07-02T11:16:39.723Z,43.53
2017-07-02T11:19:08.594Z,44.73
2017-07-02T11:21:36.648Z,40.97
2017-07-02T11:24:04.736Z,44.67
2017-07-02T11:26:32.820Z,43.30
2017-07-02T11:29:01.646Z,43.43
2017-07-02T11:31:29.715Z,41.93
2017-07-02T11:33:57.795Z,39.40
2017-07-02T11:36:25.872Z,42.40
2017-07-02T11:38:53.974Z,37.57
2017-07-02T11:41:22.119Z,39.83
2017-07-02T11:43:50.179Z,40.20
2017-07-02T11:46:18.264Z,45.37
2017-07-02T11:48:46.348Z,41.57
2017-07-02T11:51:14.415Z,45.17
2017-07-02T11:53:42.498Z,44.00
2017-07-02T11:56:10.606Z,44.13
2017-07-02T11:58:38.690Z,44.17
2017-07-02T12:01:07.619Z,45.57
2017-07-02T12:03:36.475Z,45.23
2017-07-02T12:06:04.547Z,44.80
2017-07-02T12:08:33.628Z,48.67
2017-07-02T12:11:02.399Z,52.50
2017-07-02T12:13:30.502Z,53.20
2017-07-02T12:15:59.485Z,52.10
2017-07-02T12:18:27.526Z,55.47
2017-07-02T12:20:55.747Z,55.17
2017-07-02T12:23:24.331Z,56.33
2017-07-02T12:25:53.311Z,53.93
2017-07-02T12:28:23.471Z,56.90
2017-07-02T12:30:52.563Z,62.37
2017-07-02T12:33:21.406Z,76.87
2017-07-02T12:35:50.593Z,90.23
2017-07-02T12:38:18.700Z,77.47
2017-07-02T12:40:46.823Z,70.67
2017-07-02T12:43:14.902Z,62.57
2017-07-02T12:45:43.024Z,72.63
2017-07-02T12:48:11.090Z,60.97
2017-07-02T12:50:39.924Z,68.13
2017-07-02T12:53:08.022Z,57.13
2017-07-02T12:55:36.867Z,56.13
2017-07-02T12:58:04.947Z,44.13
2017-07-02T13:00:33.043Z,44.17
2017-07-02T13:03:01.898Z,40.23
2017-07-02T13:05:29.953Z,36.93
2017-07-02T13:07:58.043Z,33.50
2017-07-02T13:10:26.150Z,35.57
2017-07-02T13:12:54.243Z,35.00
2017-07-02T13:15:23.065Z,34.97
2017-07-02T13:17:51.142Z,32.23
2017-07-02T13:20:19.231Z,36.60
2017-07-02T13:22:47.283Z,32.23
2017-07-02T13:25:15.386Z,28.27
2017-07-02T13:27:43.463Z,27.53
2017-07-02T13:30:12.316Z,28.47
2017-07-02T13:32:40.405Z,30.80
2017-07-02T13:35:08.466Z,28.03
2017-07-02T13:37:36.575Z,25.37
2017-07-02T13:40:04.635Z,27.00
2017-07-02T13:42:32.702Z,24.53
2017-07-02T13:45:00.783Z,29.57
2017-07-02T13:47:29.622Z,23.20
2017-07-02T13:49:57.696Z,25.03
2017-07-02T13:52:25.794Z,24.60
2017-07-02T13:54:53.884Z,23.70
2017-07-02T13:57:21.963Z,21.83
2017-07-02T13:59:50.059Z,21.13
2017-07-02T14:02:18.440Z,21.17
2017-07-02T14:04:46.508Z,20.17
2017-07-02T14:07:14.579Z,18.40
2017-07-02T14:09:42.676Z,19.20
2017-07-02T14:12:10.748Z,18.70
2017-07-02T14:14:38.829Z,19.10
2017-07-02T14:17:07.673Z,19.20
2017-07-02T14:19:35.752Z,16.50
2017-07-02T14:22:03.843Z,18.87
2017-07-02T14:24:31.903Z,18.87
2017-07-02T14:26:59.987Z,18.87
2017-07-02T14:29:28.077Z,19.63
2017-07-02T14:31:56.904Z,15.47
2017-07-02T14:34:24.983Z,16.00
2017-07-02T14:36:53.103Z,19.97
2017-07-02T14:39:21.967Z,18.30
2017-07-02T14:41:50.044Z,19.10
2017-07-02T14:44:18.158Z,19.50
2017-07-02T14:46:47.048Z,18.77
2017-07-02T14:49:15.422Z,19.97
2017-07-02T14:51:44.540Z,18.47
2017-07-02T14:54:12.639Z,15.57
2017-07-02T14:56:40.722Z,19.30
2017-07-02T14:59:09.580Z,16.77
2017-07-02T15:01:37.678Z,20.10
2017-07-02T15:04:06.501Z,21.00
2017-07-02T15:06:34.579Z,22.60
2017-07-02T15:09:02.643Z,20.37
2017-07-02T15:11:30.712Z,21.10
2017-07-02T15:13:58.794Z,19.40
2017-07-02T15:16:26.858Z,19.20
2017-07-02T15:18:54.940Z,21.00
2017-07-02T15:21:23.035Z,18.43
2017-07-02T15:23:51.108Z,22.80
2017-07-02T15:26:19.191Z,21.83
2017-07-02T15:28:47.263Z,17.60
2017-07-02T15:31:15.336Z,18.07
2017-07-02T15:33:43.504Z,18.10
2017-07-02T15:36:11.570Z,17.53
2017-07-02T15:38:39.666Z,13.40
2017-07-02T15:41:08.525Z,12.90
2017-07-02T15:43:36.579Z,10.10
2017-07-02T15:46:04.699Z,8.97
2017-07-02T15:48:33.569Z,7.87
2017-07-02T15:51:01.621Z,7.57
2017-07-02T15:53:29.707Z,6.30
2017-07-02T15:55:57.759Z,6.03
2017-07-02T15:58:25.841Z,5.97
2017-07-02T16:00:53.895Z,5.03
2017-07-02T16:03:21.960Z,6.53
2017-07-02T16:05:50.045Z,5.83
2017-07-02T16:08:18.099Z,6.20
2017-07-02T16:10:46.169Z,4.70
2017-07-02T16:13:14.257Z,6.40
2017-07-02T16:15:42.338Z,5.53
2017-07-02T16:18:10.384Z,6.27
2017-07-02T16:20:38.455Z,4.80
2017-07-02T16:23:06.548Z,3.47
2017-07-02T16:25:34.599Z,4.77
2017-07-02T16:28:03.503Z,3.97
2017-07-02T16:30:31.574Z,5.23
2017-07-02T16:32:59.656Z,3.77
2017-07-02T16:35:27.727Z,4.60
2017-07-02T16:37:55.793Z,8.23
2017-07-02T16:40:23.848Z,10.00
2017-07-02T16:42:51.931Z,5.33
2017-07-02T16:45:19.981Z,9.10
2017-07-02T16:47:48.053Z,6.30
2017-07-02T16:50:16.137Z,13.67
2017-07-02T16:52:44.205Z,6.87
2017-07-02T16:55:12.846Z,4.30
2017-07-02T16:57:40.895Z,9.40
2017-07-02T17:00:08.969Z,13.23
2017-07-02T17:02:37.063Z,10.13
2017-07-02T17:05:05.136Z,5.00
2017-07-02T17:07:33.190Z,7.77
2017-07-02T17:10:01.279Z,11.10
2017-07-02T17:12:29.335Z,6.93
2017-07-02T17:14:57.420Z,5.40
2017-07-02T17:17:25.532Z,4.03
2017-07-02T17:19:53.593Z,4.90
2017-07-02T17:22:21.735Z,5.90
2017-07-02T17:24:49.828Z,8.43
2017-07-02T17:27:17.899Z,5.20
2017-07-02T17:29:45.974Z,7.20
2017-07-02T17:32:14.031Z,5.40
2017-07-02T17:34:42.103Z,11.00
2017-07-02T17:37:10.182Z,6.23
2017-07-02T17:39:38.247Z,5.03
2017-07-02T17:42:06.322Z,6.67
2017-07-02T17:44:34.407Z,12.27
2017-07-02T17:47:02.478Z,6.60
2017-07-02T17:49:30.545Z,7.73
2017-07-02T17:51:58.623Z,4.13
2017-07-02T17:54:26.704Z,5.07
2017-07-02T17:56:55.524Z,3.57
2017-07-02T17:59:23.611Z,2.97
2017-07-02T18:01:51.692Z,3.30
2017-07-02T18:04:20.537Z,5.87
2017-07-02T18:06:48.596Z,3.63
2017-07-02T18:09:16.718Z,3.43
2017-07-02T18:11:44.756Z,3.47
2017-07-02T18:14:12.818Z,5.23
2017-07-02T18:16:40.891Z,5.53
2017-07-02T18:19:08.970Z,9.37
2017-07-02T18:21:37.021Z,4.17
2017-07-02T18:24:05.117Z,3.33
2017-07-02T18:26:33.371Z,4.00
2017-07-02T18:29:01.447Z,4.83
2017-07-02T18:31:29.535Z,9.47
2017-07-02T18:33:57.631Z,3.20
2017-07-02T18:36:25.697Z,6.17
2017-07-02T18:38:53.774Z,3.87
2017-07-02T18:41:21.844Z,9.10
2017-07-02T18:43:49.916Z,7.77
2017-07-02T18:46:17.987Z,5.50
2017-07-02T18:48:46.109Z,4.57
2017-07-02T18:51:14.190Z,4.97
2017-07-02T18:53:42.275Z,6.93
2017-07-02T18:56:10.345Z,6.77
2017-07-02T18:58:38.437Z,4.10
2017-07-02T19:01:06.535Z,4.50
2017-07-02T19:03:34.591Z,3.27
2017-07-02T19:06:03.418Z,5.80
2017-07-02T19:08:31.503Z,2.57
2017-07-02T19:10:59.632Z,6.07
2017-07-02T19:13:28.467Z,5.13
2017-07-02T19:15:56.536Z,3.50
2017-07-02T19:18:24.635Z,4.43
2017-07-02T19:20:52.711Z,4.60
2017-07-02T19:23:20.789Z,5.40
2017-07-02T19:25:48.851Z,8.50
2017-07-02T19:28:16.920Z,3.60
2017-07-02T19:30:45.008Z,3.27
2017-07-02T19:33:13.093Z,4.87
2017-07-02T19:35:41.157Z,2.70
2017-07-02T19:38:09.216Z,5.13
2017-07-02T19:40:37.290Z,6.10
2017-07-02T19:43:05.363Z,5.70
2017-07-02T19:45:33.444Z,6.40
2017-07-02T19:48:01.503Z,5.13
2017-07-02T19:50:30.350Z,4.20
2017-07-02T19:52:58.407Z,3.90
2017-07-02T19:55:27.415Z,4.57
2017-07-02T19:57:55.475Z,4.83
2017-07-02T20:00:23.569Z,8.73
2017-07-02T20:02:51.640Z,3.73
2017-07-02T20:05:19.707Z,4.60
2017-07-02T20:07:47.803Z,3.13
2017-07-02T20:10:15.876Z,6.03
2017-07-02T20:12:43.939Z,5.67
2017-07-02T20:15:12.013Z,4.67
2017-07-02T20:17:40.096Z,7.00
2017-07-02T20:20:08.925Z,4.53
2017-07-02T20:22:36.988Z,5.77
2017-07-02T20:25:05.087Z,6.73
2017-07-02T20:27:33.171Z,4.80
2017-07-02T20:30:01.264Z,5.57
2017-07-02T20:32:29.345Z,4.03
2017-07-02T20:34:58.167Z,6.33
2017-07-02T20:37:26.275Z,5.57
2017-07-02T20:39:54.331Z,7.70
2017-07-02T20:42:22.436Z,4.20
2017-07-02T20:44:50.481Z,5.57
2017-07-02T20:47:18.535Z,8.47
2017-07-02T20:49:46.619Z,3.07
2017-07-02T20:52:14.682Z,6.87
2017-07-02T20:54:42.759Z,7.27
2017-07-02T20:57:10.827Z,5.13
2017-07-02T20:59:38.875Z,5.80
2017-07-02T21:02:06.951Z,4.87
2017-07-02T21:04:35.042Z,10.83
2017-07-02T21:07:03.874Z,6.77
2017-07-02T21:09:31.974Z,10.07
2017-07-02T21:12:00.045Z,6.10
2017-07-02T21:14:28.103Z,6.73
2017-07-02T21:16:56.182Z,11.93
2017-07-02T21:19:24.261Z,8.93
2017-07-02T21:21:52.352Z,7.30
2017-07-02T21:24:20.383Z,3.80
2017-07-02T21:26:48.457Z,4.93
2017-07-02T21:29:16.535Z,7.37
2017-07-02T21:31:44.629Z,8.23
2017-07-02T21:34:12.691Z,9.17
2017-07-02T21:36:40.777Z,6.67
2017-07-02T21:39:09.621Z,13.20
2017-07-02T21:41:37.688Z,10.13
2017-07-02T21:44:05.770Z,11.57
2017-07-02T21:46:33.908Z,9.33
2017-07-02T21:49:02.727Z,7.20
2017-07-02T21:51:30.852Z,10.37
2017-07-02T21:54:00.142Z,9.53
2017-07-02T21:56:28.973Z,5.10
2017-07-02T21:58:57.043Z,9.10
2017-07-02T22:01:25.118Z,9.57
2017-07-02T22:03:53.183Z,8.70
2017-07-02T22:06:21.265Z,12.87
2017-07-02T22:08:49.335Z,4.63
2017-07-02T22:11:17.414Z,8.83
2017-07-02T22:13:46.248Z,6.80
2017-07-02T22:16:14.332Z,8.50
2017-07-02T22:18:42.402Z,4.30
2017-07-02T22:21:10.463Z,8.37
2017-07-02T22:23:38.540Z,10.27
2017-07-02T22:26:06.620Z,8.13
2017-07-02T22:28:34.696Z,10.83
2017-07-02T22:31:02.771Z,12.20
2017-07-02T22:33:30.823Z,8.83
2017-07-02T22:35:58.904Z,6.47
2017-07-02T22:38:26.980Z,14.00
2017-07-02T22:40:55.042Z,7.60
2017-07-02T22:43:23.114Z,11.20
2017-07-02T22:45:51.171Z,12.30
2017-07-02T22:48:19.254Z,9.07
2017-07-02T22:50:47.310Z,8.03
2017-07-02T22:53:15.383Z,10.30
2017-07-02T22:55:43.450Z,5.70
2017-07-02T22:58:11.518Z,12.33
2017-07-02T23:00:39.606Z,12.60
2017-07-02T23:03:07.676Z,10.03
2017-07-02T23:05:35.727Z,6.40
2017-07-02T23:08:03.796Z,9.30
2017-07-02T23:10:31.846Z,7.17
2017-07-02T23:12:59.924Z,11.10
2017-07-02T23:15:27.988Z,7.20
2017-07-02T23:17:56.067Z,10.30
2017-07-02T23:20:24.162Z,9.77
2017-07-02T23:22:52.206Z,9.20
2017-07-02T23:25:20.284Z,5.97
2017-07-02T23:27:48.379Z,10.20
2017-07-02T23:30:16.442Z,7.67
2017-07-02T23:32:44.509Z,9.90
2017-07-02T23:35:12.566Z,12.43
2017-07-02T23:37:40.638Z,9.33
2017-07-02T23:40:08.703Z,8.93
2017-07-02T23:42:36.778Z,9.13
2017-07-02T23:45:04.847Z,6.67
2017-07-02T23:47:33.840Z,8.90
2017-07-02T23:50:01.902Z,7.20
2017-07-02T23:52:29.980Z,10.10
2017-07-02T23:54:58.059Z,8.33
2017-07-02T23:57:26.127Z,4.57
2017-07-02T23:59:54.191Z,5.97
